sensor_id;sensor_type;location;lat;lon;timestamp;P1;P2;P0
65556;PMS3003;52200;53.490;14.376;2023-05-16T00:00:56;29.25;24.50;15.50
65556;PMS3003;52200;53.490;14.376;2023-05-16T00:03:22;28.60;23.80;14.20
65556;PMS3003;52200;53.490;14.376;2023-05-16T00:05:47;27.50;23.50;14.25
65556;PMS3003;52200;53.490;14.376;2023-05-16T00:08:14;25.60;21.60;15.00
65556;PMS3003;52200;53.490;14.376;2023-05-16T00:10:40;25.00;20.50;12.00
65556;PMS3003;52200;53.490;14.376;2023-05-16T00:13:05;26.50;19.50;12.50
65556;PMS3003;52200;53.490;14.376;2023-05-16T00:15:31;29.50;23.75;14.25
65556;PMS3003;52200;53.490;14.376;2023-05-16T00:17:57;23.40;18.60;12.00
65556;PMS3003;52200;53.490;14.376;2023-05-16T00:20:24;23.00;18.60;12.00
65556;PMS3003;52200;53.490;14.376;2023-05-16T00:22:50;25.20;20.60;13.40
65556;PMS3003;52200;53.490;14.376;2023-05-16T00:25:16;25.00;20.75;14.00
65556;PMS3003;52200;53.490;14.376;2023-05-16T00:27:43;31.00;24.75;14.50
65556;PMS3003;52200;53.490;14.376;2023-05-16T00:30:08;26.40;20.20;13.00
65556;PMS3003;52200;53.490;14.376;2023-05-16T00:32:34;26.20;19.60;13.00
65556;PMS3003;52200;53.490;14.376;2023-05-16T00:35:00;25.60;21.80;14.80
65556;PMS3003;52200;53.490;14.376;2023-05-16T00:37:26;20.50;17.50;13.00
65556;PMS3003;52200;53.490;14.376;2023-05-16T00:39:51;24.00;20.25;14.25
65556;PMS3003;52200;53.490;14.376;2023-05-16T00:42:20;24.50;20.25;13.00
65556;PMS3003;52200;53.490;14.376;2023-05-16T00:44:45;24.20;18.60;11.20
65556;PMS3003;52200;53.490;14.376;2023-05-16T00:47:12;25.40;19.20;12.40
65556;PMS3003;52200;53.490;14.376;2023-05-16T00:49:37;26.75;21.00;13.00
65556;PMS3003;52200;53.490;14.376;2023-05-16T00:52:03;24.60;20.00;11.80
65556;PMS3003;52200;53.490;14.376;2023-05-16T00:54:29;25.40;18.40;12.20
65556;PMS3003;52200;53.490;14.376;2023-05-16T00:56:55;22.40;18.40;12.20
65556;PMS3003;52200;53.490;14.376;2023-05-16T00:59:24;25.80;21.80;12.80
65556;PMS3003;52200;53.490;14.376;2023-05-16T01:01:51;31.20;22.60;13.60
65556;PMS3003;52200;53.490;14.376;2023-05-16T01:04:17;24.00;19.00;12.25
65556;PMS3003;52200;53.490;14.376;2023-05-16T01:06:43;27.40;21.80;13.60
65556;PMS3003;52200;53.490;14.376;2023-05-16T01:09:09;26.60;21.40;14.60
65556;PMS3003;52200;53.490;14.376;2023-05-16T01:17:26;25.40;20.80;13.00
65556;PMS3003;52200;53.490;14.376;2023-05-16T01:22:51;28.00;21.40;14.40
65556;PMS3003;52200;53.490;14.376;2023-05-16T01:25:31;24.60;21.00;13.60
65556;PMS3003;52200;53.490;14.376;2023-05-16T01:28:05;23.20;19.80;13.60
65556;PMS3003;52200;53.490;14.376;2023-05-16T01:30:32;30.80;22.40;14.40
65556;PMS3003;52200;53.490;14.376;2023-05-16T01:32:59;24.20;16.80;10.80
65556;PMS3003;52200;53.490;14.376;2023-05-16T01:35:25;29.75;21.75;13.50
65556;PMS3003;52200;53.490;14.376;2023-05-16T01:43:33;25.80;21.80;14.60
65556;PMS3003;52200;53.490;14.376;2023-05-16T01:46:14;25.40;21.00;13.20
65556;PMS3003;52200;53.490;14.376;2023-05-16T01:48:46;26.00;21.40;15.00
65556;PMS3003;52200;53.490;14.376;2023-05-16T01:51:19;25.00;20.40;13.80
65556;PMS3003;52200;53.490;14.376;2023-05-16T01:53:46;27.20;23.60;14.60
65556;PMS3003;52200;53.490;14.376;2023-05-16T01:56:15;26.40;22.00;13.20
65556;PMS3003;52200;53.490;14.376;2023-05-16T01:58:41;25.40;19.80;13.60
65556;PMS3003;52200;53.490;14.376;2023-05-16T02:01:07;28.80;23.80;13.80
65556;PMS3003;52200;53.490;14.376;2023-05-16T02:03:33;27.00;21.25;14.00
65556;PMS3003;52200;53.490;14.376;2023-05-16T02:05:58;28.80;25.40;15.80
65556;PMS3003;52200;53.490;14.376;2023-05-16T02:08:25;26.40;21.80;14.00
65556;PMS3003;52200;53.490;14.376;2023-05-16T02:10:51;25.60;21.40;14.00
65556;PMS3003;52200;53.490;14.376;2023-05-16T02:13:17;26.50;21.75;13.50
65556;PMS3003;52200;53.490;14.376;2023-05-16T02:15:43;26.75;19.00;13.00
65556;PMS3003;52200;53.490;14.376;2023-05-16T02:18:08;24.00;18.75;13.00
65556;PMS3003;52200;53.490;14.376;2023-05-16T02:20:34;29.75;24.00;15.00
65556;PMS3003;52200;53.490;14.376;2023-05-16T02:23:00;23.80;20.20;12.80
65556;PMS3003;52200;53.490;14.376;2023-05-16T02:25:27;23.00;19.20;13.40
65556;PMS3003;52200;53.490;14.376;2023-05-16T02:27:52;25.50;20.25;14.25
65556;PMS3003;52200;53.490;14.376;2023-05-16T02:30:18;29.50;23.00;13.50
65556;PMS3003;52200;53.490;14.376;2023-05-16T02:32:43;26.75;22.25;15.00
65556;PMS3003;52200;53.490;14.376;2023-05-16T02:35:09;24.25;20.25;13.00
65556;PMS3003;52200;53.490;14.376;2023-05-16T02:37:34;24.25;19.00;11.75
65556;PMS3003;52200;53.490;14.376;2023-05-16T02:40:00;26.75;21.50;14.00
65556;PMS3003;52200;53.490;14.376;2023-05-16T02:42:26;24.75;20.75;12.25
65556;PMS3003;52200;53.490;14.376;2023-05-16T02:44:52;26.00;20.75;13.25
65556;PMS3003;52200;53.490;14.376;2023-05-16T02:47:17;28.00;24.00;13.50
65556;PMS3003;52200;53.490;14.376;2023-05-16T02:49:43;26.00;21.00;13.75
65556;PMS3003;52200;53.490;14.376;2023-05-16T02:52:08;27.00;21.25;14.00
65556;PMS3003;52200;53.490;14.376;2023-05-16T02:54:34;29.50;21.00;13.00
65556;PMS3003;52200;53.490;14.376;2023-05-16T02:56:59;26.75;20.75;13.75
65556;PMS3003;52200;53.490;14.376;2023-05-16T02:59:25;29.75;24.00;14.00
65556;PMS3003;52200;53.490;14.376;2023-05-16T03:01:50;25.00;20.25;13.50
65556;PMS3003;52200;53.490;14.376;2023-05-16T03:04:16;32.00;26.25;15.00
65556;PMS3003;52200;53.490;14.376;2023-05-16T03:06:41;27.00;22.75;14.00
65556;PMS3003;52200;53.490;14.376;2023-05-16T03:09:07;32.00;25.00;16.50
65556;PMS3003;52200;53.490;14.376;2023-05-16T03:11:32;29.50;24.25;15.25
65556;PMS3003;52200;53.490;14.376;2023-05-16T03:13:58;30.50;24.75;17.75
65556;PMS3003;52200;53.490;14.376;2023-05-16T03:16:24;33.75;30.00;19.00
65556;PMS3003;52200;53.490;14.376;2023-05-16T03:18:49;38.00;32.25;19.00
65556;PMS3003;52200;53.490;14.376;2023-05-16T03:21:15;30.75;26.50;20.00
65556;PMS3003;52200;53.490;14.376;2023-05-16T03:23:42;37.80;32.60;19.60
65556;PMS3003;52200;53.490;14.376;2023-05-16T03:26:07;36.50;27.75;18.25
65556;PMS3003;52200;53.490;14.376;2023-05-16T03:28:33;35.50;30.00;17.75
65556;PMS3003;52200;53.490;14.376;2023-05-16T03:30:58;37.00;30.50;19.25
65556;PMS3003;52200;53.490;14.376;2023-05-16T03:33:24;39.20;33.00;18.80
65556;PMS3003;52200;53.490;14.376;2023-05-16T03:35:50;37.00;30.00;18.75
65556;PMS3003;52200;53.490;14.376;2023-05-16T03:38:16;39.60;33.20;19.00
65556;PMS3003;52200;53.490;14.376;2023-05-16T03:40:42;34.00;29.25;19.75
65556;PMS3003;52200;53.490;14.376;2023-05-16T03:43:07;31.75;27.25;18.00
65556;PMS3003;52200;53.490;14.376;2023-05-16T03:45:33;38.25;30.00;18.00
65556;PMS3003;52200;53.490;14.376;2023-05-16T03:47:58;37.00;33.75;20.00
65556;PMS3003;52200;53.490;14.376;2023-05-16T03:50:24;36.00;30.00;18.00
65556;PMS3003;52200;53.490;14.376;2023-05-16T03:52:50;38.60;30.40;18.40
65556;PMS3003;52200;53.490;14.376;2023-05-16T03:55:16;37.40;31.40;20.40
65556;PMS3003;52200;53.490;14.376;2023-05-16T03:57:42;40.25;33.50;21.00
65556;PMS3003;52200;53.490;14.376;2023-05-16T04:00:08;38.50;31.75;21.25
65556;PMS3003;52200;53.490;14.376;2023-05-16T04:02:35;41.60;34.60;20.40
65556;PMS3003;52200;53.490;14.376;2023-05-16T04:05:00;44.25;35.25;22.00
65556;PMS3003;52200;53.490;14.376;2023-05-16T04:07:25;42.25;34.50;23.00
65556;PMS3003;52200;53.490;14.376;2023-05-16T04:09:52;47.00;38.00;23.00
65556;PMS3003;52200;53.490;14.376;2023-05-16T04:12:19;50.20;38.20;25.00
65556;PMS3003;52200;53.490;14.376;2023-05-16T04:14:44;48.25;39.25;26.00
65556;PMS3003;52200;53.490;14.376;2023-05-16T04:17:09;55.75;44.50;26.75
65556;PMS3003;52200;53.490;14.376;2023-05-16T04:19:36;55.50;43.00;28.00
65556;PMS3003;52200;53.490;14.376;2023-05-16T04:22:01;55.00;43.00;27.00
65556;PMS3003;52200;53.490;14.376;2023-05-16T04:24:27;59.00;46.00;29.00
65556;PMS3003;52200;53.490;14.376;2023-05-16T04:26:53;64.00;50.33;31.00
65556;PMS3003;52200;53.490;14.376;2023-05-16T04:29:19;61.50;48.00;31.00
65556;PMS3003;52200;53.490;14.376;2023-05-16T04:31:45;66.75;51.75;31.00
65556;PMS3003;52200;53.490;14.376;2023-05-16T04:34:11;63.67;49.67;31.00
65556;PMS3003;52200;53.490;14.376;2023-05-16T04:36:37;66.25;52.25;31.00
65556;PMS3003;52200;53.490;14.376;2023-05-16T04:39:02;69.00;53.00;31.67
65556;PMS3003;52200;53.490;14.376;2023-05-16T04:41:28;65.33;51.00;30.00
65556;PMS3003;52200;53.490;14.376;2023-05-16T04:43:54;65.50;50.75;31.00
65556;PMS3003;52200;53.490;14.376;2023-05-16T04:46:20;63.33;51.00;31.00
65556;PMS3003;52200;53.490;14.376;2023-05-16T04:48:45;70.00;54.00;31.00
65556;PMS3003;52200;53.490;14.376;2023-05-16T04:51:11;68.00;50.33;31.67
65556;PMS3003;52200;53.490;14.376;2023-05-16T04:53:36;62.33;49.33;31.00
65556;PMS3003;52200;53.490;14.376;2023-05-16T04:56:02;68.00;51.67;33.00
65556;PMS3003;52200;53.490;14.376;2023-05-16T04:58:29;68.75;51.50;31.00
65556;PMS3003;52200;53.490;14.376;2023-05-16T05:00:55;64.75;51.50;31.00
65556;PMS3003;52200;53.490;14.376;2023-05-16T05:03:21;65.50;51.00;30.75
65556;PMS3003;52200;53.490;14.376;2023-05-16T05:05:47;63.33;49.67;30.00
65556;PMS3003;52200;53.490;14.376;2023-05-16T05:08:12;62.00;49.33;30.67
65556;PMS3003;52200;53.490;14.376;2023-05-16T05:10:38;62.00;50.00;30.00
65556;PMS3003;52200;53.490;14.376;2023-05-16T05:13:04;62.75;48.75;30.75
65556;PMS3003;52200;53.490;14.376;2023-05-16T05:15:30;61.00;47.00;30.00
65556;PMS3003;52200;53.490;14.376;2023-05-16T05:17:55;59.33;47.33;30.67
65556;PMS3003;52200;53.490;14.376;2023-05-16T05:20:20;57.67;45.33;28.33
65556;PMS3003;52200;53.490;14.376;2023-05-16T05:22:46;62.00;47.33;30.00
65556;PMS3003;52200;53.490;14.376;2023-05-16T05:25:11;57.67;45.00;28.33
65556;PMS3003;52200;53.490;14.376;2023-05-16T05:27:38;56.25;44.75;28.00
65556;PMS3003;52200;53.490;14.376;2023-05-16T05:30:03;58.67;46.00;28.00
65556;PMS3003;52200;53.490;14.376;2023-05-16T05:32:29;54.75;42.75;27.75
65556;PMS3003;52200;53.490;14.376;2023-05-16T05:34:55;57.33;45.00;28.00
65556;PMS3003;52200;53.490;14.376;2023-05-16T05:37:20;56.33;43.33;27.67
65556;PMS3003;52200;53.490;14.376;2023-05-16T05:39:45;53.50;42.25;28.00
65556;PMS3003;52200;53.490;14.376;2023-05-16T05:42:11;52.67;41.00;27.33
65556;PMS3003;52200;53.490;14.376;2023-05-16T05:44:37;54.00;42.67;26.00
65556;PMS3003;52200;53.490;14.376;2023-05-16T05:47:03;54.75;43.50;26.00
65556;PMS3003;52200;53.490;14.376;2023-05-16T05:49:29;53.80;42.80;25.80
65556;PMS3003;52200;53.490;14.376;2023-05-16T05:51:55;52.50;41.25;25.25
65556;PMS3003;52200;53.490;14.376;2023-05-16T05:54:21;47.75;38.50;24.00
65556;PMS3003;52200;53.490;14.376;2023-05-16T05:56:47;49.00;38.40;24.00
65556;PMS3003;52200;53.490;14.376;2023-05-16T05:59:13;41.50;34.75;23.25
65556;PMS3003;52200;53.490;14.376;2023-05-16T06:01:38;47.25;35.75;22.50
65556;PMS3003;52200;53.490;14.376;2023-05-16T06:04:04;46.00;35.25;23.25
65556;PMS3003;52200;53.490;14.376;2023-05-16T06:06:29;47.80;36.00;22.40
65556;PMS3003;52200;53.490;14.376;2023-05-16T06:08:55;47.80;37.00;21.80
65556;PMS3003;52200;53.490;14.376;2023-05-16T06:11:21;45.20;35.60;21.00
65556;PMS3003;52200;53.490;14.376;2023-05-16T06:13:47;46.25;35.50;21.75
65556;PMS3003;52200;53.490;14.376;2023-05-16T06:16:12;40.00;31.25;20.75
65556;PMS3003;52200;53.490;14.376;2023-05-16T06:18:38;39.25;32.50;19.25
65556;PMS3003;52200;53.490;14.376;2023-05-16T06:21:04;38.50;29.25;18.00
65556;PMS3003;52200;53.490;14.376;2023-05-16T06:23:30;35.60;30.00;18.40
65556;PMS3003;52200;53.490;14.376;2023-05-16T06:25:56;40.50;31.00;19.75
65556;PMS3003;52200;53.490;14.376;2023-05-16T06:28:21;38.75;32.50;17.75
65556;PMS3003;52200;53.490;14.376;2023-05-16T06:30:48;37.40;30.60;18.40
65556;PMS3003;52200;53.490;14.376;2023-05-16T06:33:15;37.00;29.40;18.00
65556;PMS3003;52200;53.490;14.376;2023-05-16T06:35:41;31.25;27.25;16.50
65556;PMS3003;52200;53.490;14.376;2023-05-16T06:38:06;36.25;28.50;17.00
65556;PMS3003;52200;53.490;14.376;2023-05-16T06:40:32;39.25;30.00;17.75
65556;PMS3003;52200;53.490;14.376;2023-05-16T06:42:57;31.50;24.50;15.00
65556;PMS3003;52200;53.490;14.376;2023-05-16T06:45:23;33.25;29.00;16.75
65556;PMS3003;52200;53.490;14.376;2023-05-16T06:47:48;34.75;29.00;16.75
65556;PMS3003;52200;53.490;14.376;2023-05-16T06:50:13;31.25;26.00;16.75
65556;PMS3003;52200;53.490;14.376;2023-05-16T06:52:39;34.25;27.50;16.75
65556;PMS3003;52200;53.490;14.376;2023-05-16T06:55:06;33.20;27.80;15.60
65556;PMS3003;52200;53.490;14.376;2023-05-16T06:57:31;30.40;24.60;14.60
65556;PMS3003;52200;53.490;14.376;2023-05-16T06:59:57;29.00;25.00;15.00
65556;PMS3003;52200;53.490;14.376;2023-05-16T07:02:22;28.50;23.75;14.00
65556;PMS3003;52200;53.490;14.376;2023-05-16T07:04:48;28.00;23.00;14.00
65556;PMS3003;52200;53.490;14.376;2023-05-16T07:07:13;30.25;26.25;14.25
65556;PMS3003;52200;53.490;14.376;2023-05-16T07:09:39;30.40;25.60;13.40
65556;PMS3003;52200;53.490;14.376;2023-05-16T07:12:05;25.00;21.75;13.50
65556;PMS3003;52200;53.490;14.376;2023-05-16T07:14:30;28.75;23.75;14.50
65556;PMS3003;52200;53.490;14.376;2023-05-16T07:16:56;34.25;27.00;15.50
65556;PMS3003;52200;53.490;14.376;2023-05-16T07:19:21;27.75;23.00;14.00
65556;PMS3003;52200;53.490;14.376;2023-05-16T07:21:46;34.25;27.50;14.75
65556;PMS3003;52200;53.490;14.376;2023-05-16T07:24:12;26.75;21.75;13.75
65556;PMS3003;52200;53.490;14.376;2023-05-16T07:26:37;25.00;21.00;13.00
65556;PMS3003;52200;53.490;14.376;2023-05-16T07:29:03;24.00;18.75;10.00
65556;PMS3003;52200;53.490;14.376;2023-05-16T07:31:28;27.75;20.25;12.75
65556;PMS3003;52200;53.490;14.376;2023-05-16T07:33:55;27.20;20.60;12.40
65556;PMS3003;52200;53.490;14.376;2023-05-16T07:36:21;27.75;20.00;12.00
65556;PMS3003;52200;53.490;14.376;2023-05-16T07:38:46;29.50;23.00;13.50
65556;PMS3003;52200;53.490;14.376;2023-05-16T07:41:12;27.00;19.50;12.00
65556;PMS3003;52200;53.490;14.376;2023-05-16T07:43:37;28.75;20.25;12.50
65556;PMS3003;52200;53.490;14.376;2023-05-16T07:46:03;22.75;17.00;10.00
65556;PMS3003;52200;53.490;14.376;2023-05-16T07:48:29;24.20;19.80;11.80
65556;PMS3003;52200;53.490;14.376;2023-05-16T07:50:54;24.75;17.75;9.25
65556;PMS3003;52200;53.490;14.376;2023-05-16T07:53:20;28.75;20.00;12.00
65556;PMS3003;52200;53.490;14.376;2023-05-16T07:55:46;24.00;18.75;12.00
65556;PMS3003;52200;53.490;14.376;2023-05-16T07:58:12;24.20;19.60;11.80
65556;PMS3003;52200;53.490;14.376;2023-05-16T08:00:38;24.80;19.00;12.20
65556;PMS3003;52200;53.490;14.376;2023-05-16T08:03:03;25.25;20.00;10.00
65556;PMS3003;52200;53.490;14.376;2023-05-16T08:05:29;21.75;18.50;10.00
65556;PMS3003;52200;53.490;14.376;2023-05-16T08:07:54;24.50;19.00;10.00
65556;PMS3003;52200;53.490;14.376;2023-05-16T08:10:20;24.50;18.00;12.00
65556;PMS3003;52200;53.490;14.376;2023-05-16T08:12:47;25.40;20.40;11.80
65556;PMS3003;52200;53.490;14.376;2023-05-16T08:15:12;21.00;17.25;11.00
65556;PMS3003;52200;53.490;14.376;2023-05-16T08:17:38;24.50;18.25;11.50
65556;PMS3003;52200;53.490;14.376;2023-05-16T08:20:03;25.75;19.00;11.75
65556;PMS3003;52200;53.490;14.376;2023-05-16T08:22:30;24.60;16.80;8.60
65556;PMS3003;52200;53.490;14.376;2023-05-16T08:24:56;24.60;18.80;10.80
65556;PMS3003;52200;53.490;14.376;2023-05-16T08:27:27;20.50;16.75;10.75
65556;PMS3003;52200;53.490;14.376;2023-05-16T08:29:53;22.40;17.80;9.40
65556;PMS3003;52200;53.490;14.376;2023-05-16T08:32:20;23.00;15.40;9.60
65556;PMS3003;52200;53.490;14.376;2023-05-16T08:34:46;22.80;16.60;9.60
65556;PMS3003;52200;53.490;14.376;2023-05-16T08:37:11;20.00;16.75;9.25
65556;PMS3003;52200;53.490;14.376;2023-05-16T08:39:37;25.50;18.00;9.25
65556;PMS3003;52200;53.490;14.376;2023-05-16T08:42:03;23.40;16.00;8.00
65556;PMS3003;52200;53.490;14.376;2023-05-16T08:44:29;19.80;16.80;9.00
65556;PMS3003;52200;53.490;14.376;2023-05-16T08:46:55;20.00;15.80;8.20
65556;PMS3003;52200;53.490;14.376;2023-05-16T08:49:21;20.40;17.00;9.40
65556;PMS3003;52200;53.490;14.376;2023-05-16T08:51:51;21.80;18.00;8.00
65556;PMS3003;52200;53.490;14.376;2023-05-16T08:54:20;20.80;15.60;8.60
65556;PMS3003;52200;53.490;14.376;2023-05-16T08:56:46;25.80;18.00;12.00
65556;PMS3003;52200;53.490;14.376;2023-05-16T08:59:14;25.00;17.40;9.20
65556;PMS3003;52200;53.490;14.376;2023-05-16T09:01:40;21.00;15.60;9.80
65556;PMS3003;52200;53.490;14.376;2023-05-16T09:04:07;21.00;15.60;8.20
65556;PMS3003;52200;53.490;14.376;2023-05-16T09:06:33;20.00;14.00;7.80
65556;PMS3003;52200;53.490;14.376;2023-05-16T09:08:59;18.80;12.80;6.60
65556;PMS3003;52200;53.490;14.376;2023-05-16T09:11:26;18.40;15.00;7.00
65556;PMS3003;52200;53.490;14.376;2023-05-16T09:13:52;16.00;13.00;7.20
65556;PMS3003;52200;53.490;14.376;2023-05-16T09:16:18;18.00;15.00;7.00
65556;PMS3003;52200;53.490;14.376;2023-05-16T09:18:46;18.60;13.20;7.20
65556;PMS3003;52200;53.490;14.376;2023-05-16T09:21:18;17.40;13.80;7.40
65556;PMS3003;52200;53.490;14.376;2023-05-16T09:23:47;18.20;12.00;6.40
65556;PMS3003;52200;53.490;14.376;2023-05-16T09:26:13;16.80;10.60;6.00
65556;PMS3003;52200;53.490;14.376;2023-05-16T09:28:40;13.40;9.00;5.00
65556;PMS3003;52200;53.490;14.376;2023-05-16T09:31:22;16.60;10.00;4.80
65556;PMS3003;52200;53.490;14.376;2023-05-16T09:33:59;18.40;8.60;5.60
65556;PMS3003;52200;53.490;14.376;2023-05-16T09:36:25;14.20;8.00;4.00
65556;PMS3003;52200;53.490;14.376;2023-05-16T09:38:50;13.75;8.50;5.25
65556;PMS3003;52200;53.490;14.376;2023-05-16T09:41:16;14.60;8.00;4.80
65556;PMS3003;52200;53.490;14.376;2023-05-16T09:43:42;12.50;7.00;4.00
65556;PMS3003;52200;53.490;14.376;2023-05-16T09:46:11;12.80;7.20;4.00
65556;PMS3003;52200;53.490;14.376;2023-05-16T09:48:39;12.60;8.00;4.20
65556;PMS3003;52200;53.490;14.376;2023-05-16T09:51:15;15.20;8.40;4.20
65556;PMS3003;52200;53.490;14.376;2023-05-16T09:53:46;15.80;8.60;5.00
65556;PMS3003;52200;53.490;14.376;2023-05-16T09:56:12;13.00;9.00;5.00
65556;PMS3003;52200;53.490;14.376;2023-05-16T09:58:39;13.60;9.00;6.00
65556;PMS3003;52200;53.490;14.376;2023-05-16T10:01:06;15.00;9.40;5.00
65556;PMS3003;52200;53.490;14.376;2023-05-16T10:03:33;14.00;7.40;3.60
65556;PMS3003;52200;53.490;14.376;2023-05-16T10:06:00;11.40;6.40;4.20
65556;PMS3003;52200;53.490;14.376;2023-05-16T10:08:27;12.00;6.80;4.00
65556;PMS3003;52200;53.490;14.376;2023-05-16T10:10:55;10.00;7.00;4.00
65556;PMS3003;52200;53.490;14.376;2023-05-16T10:13:22;11.75;6.25;4.00
65556;PMS3003;52200;53.490;14.376;2023-05-16T10:15:54;10.40;6.00;3.20
65556;PMS3003;52200;53.490;14.376;2023-05-16T10:18:20;9.60;5.40;3.00
65556;PMS3003;52200;53.490;14.376;2023-05-16T10:20:48;11.00;8.00;3.80
65556;PMS3003;52200;53.490;14.376;2023-05-16T10:23:18;10.60;5.60;3.80
65556;PMS3003;52200;53.490;14.376;2023-05-16T10:25:45;9.80;5.00;3.00
65556;PMS3003;52200;53.490;14.376;2023-05-16T10:28:12;14.20;6.00;3.00
65556;PMS3003;52200;53.490;14.376;2023-05-16T10:30:39;12.20;6.60;3.00
65556;PMS3003;52200;53.490;14.376;2023-05-16T10:33:08;11.00;5.80;2.80
65556;PMS3003;52200;53.490;14.376;2023-05-16T10:35:36;10.40;6.00;3.00
65556;PMS3003;52200;53.490;14.376;2023-05-16T10:38:02;12.80;5.00;2.20
65556;PMS3003;52200;53.490;14.376;2023-05-16T10:40:29;14.00;7.00;3.00
65556;PMS3003;52200;53.490;14.376;2023-05-16T10:42:55;8.60;5.00;2.40
65556;PMS3003;52200;53.490;14.376;2023-05-16T10:45:22;9.80;5.80;3.00
65556;PMS3003;52200;53.490;14.376;2023-05-16T10:47:54;8.00;4.00;1.25
65556;PMS3003;52200;53.490;14.376;2023-05-16T10:50:30;9.80;4.20;2.00
65556;PMS3003;52200;53.490;14.376;2023-05-16T10:53:19;9.40;6.00;3.00
65556;PMS3003;52200;53.490;14.376;2023-05-16T11:07:01;12.00;5.20;2.00
65556;PMS3003;52200;53.490;14.376;2023-05-16T11:09:22;12.80;7.00;2.60
65556;PMS3003;52200;53.490;14.376;2023-05-16T11:19:38;7.60;3.20;2.40
65556;PMS3003;52200;53.490;14.376;2023-05-16T11:24:31;14.20;6.80;3.00
65556;PMS3003;52200;53.490;14.376;2023-05-16T11:26:58;11.00;4.60;2.20
65556;PMS3003;52200;53.490;14.376;2023-05-16T11:29:30;11.20;5.20;2.20
65556;PMS3003;52200;53.490;14.376;2023-05-16T11:31:59;10.80;5.80;1.60
65556;PMS3003;52200;53.490;14.376;2023-05-16T11:34:26;8.00;4.00;2.00
65556;PMS3003;52200;53.490;14.376;2023-05-16T11:36:52;12.75;6.25;3.25
65556;PMS3003;52200;53.490;14.376;2023-05-16T11:39:17;12.50;4.00;2.00
65556;PMS3003;52200;53.490;14.376;2023-05-16T11:41:43;12.20;4.60;3.00
65556;PMS3003;52200;53.490;14.376;2023-05-16T11:44:10;11.20;4.00;3.00
65556;PMS3003;52200;53.490;14.376;2023-05-16T11:46:38;8.20;3.60;2.00
65556;PMS3003;52200;53.490;14.376;2023-05-16T11:49:05;9.80;6.00;2.20
65556;PMS3003;52200;53.490;14.376;2023-05-16T11:51:31;7.00;4.00;2.20
65556;PMS3003;52200;53.490;14.376;2023-05-16T11:53:58;10.20;5.20;2.40
65556;PMS3003;52200;53.490;14.376;2023-05-16T11:56:26;10.00;4.00;2.00
65556;PMS3003;52200;53.490;14.376;2023-05-16T11:58:51;10.00;4.50;2.00
65556;PMS3003;52200;53.490;14.376;2023-05-16T12:01:17;11.40;5.20;2.20
65556;PMS3003;52200;53.490;14.376;2023-05-16T12:03:43;9.00;5.50;2.00
65556;PMS3003;52200;53.490;14.376;2023-05-16T12:06:08;8.00;4.00;3.00
65556;PMS3003;52200;53.490;14.376;2023-05-16T12:08:34;10.75;5.50;2.00
65556;PMS3003;52200;53.490;14.376;2023-05-16T12:10:59;12.20;6.00;3.00
65556;PMS3003;52200;53.490;14.376;2023-05-16T12:13:25;11.50;7.00;3.00
65556;PMS3003;52200;53.490;14.376;2023-05-16T12:15:51;12.40;5.20;2.80
65556;PMS3003;52200;53.490;14.376;2023-05-16T12:18:17;8.80;3.80;2.00
65556;PMS3003;52200;53.490;14.376;2023-05-16T12:20:43;9.00;5.50;2.00
65556;PMS3003;52200;53.490;14.376;2023-05-16T12:23:09;11.00;5.00;2.00
65556;PMS3003;52200;53.490;14.376;2023-05-16T12:25:36;9.60;5.40;2.40
65556;PMS3003;52200;53.490;14.376;2023-05-16T12:28:08;10.00;4.20;3.00
65556;PMS3003;52200;53.490;14.376;2023-05-16T12:30:42;13.40;5.00;3.00
65556;PMS3003;52200;53.490;14.376;2023-05-16T12:33:13;12.40;6.80;3.40
65556;PMS3003;52200;53.490;14.376;2023-05-16T12:35:41;8.00;4.40;2.60
65556;PMS3003;52200;53.490;14.376;2023-05-16T12:38:09;10.80;5.00;2.00
65556;PMS3003;52200;53.490;14.376;2023-05-16T12:40:36;9.00;6.00;2.20
65556;PMS3003;52200;53.490;14.376;2023-05-16T12:43:03;9.60;6.20;2.60
65556;PMS3003;52200;53.490;14.376;2023-05-16T12:45:29;10.00;5.60;2.60
65556;PMS3003;52200;53.490;14.376;2023-05-16T12:48:00;9.80;4.20;2.00
65556;PMS3003;52200;53.490;14.376;2023-05-16T12:50:29;8.40;3.40;2.00
65556;PMS3003;52200;53.490;14.376;2023-05-16T12:52:57;10.60;5.80;2.00
65556;PMS3003;52200;53.490;14.376;2023-05-16T12:55:24;11.40;6.60;3.00
65556;PMS3003;52200;53.490;14.376;2023-05-16T12:57:50;11.40;4.60;2.40
65556;PMS3003;52200;53.490;14.376;2023-05-16T13:00:17;11.75;6.25;2.00
65556;PMS3003;52200;53.490;14.376;2023-05-16T13:02:44;9.60;5.60;3.00
65556;PMS3003;52200;53.490;14.376;2023-05-16T13:05:10;13.00;5.40;2.60
65556;PMS3003;52200;53.490;14.376;2023-05-16T13:07:36;13.50;4.75;2.75
65556;PMS3003;52200;53.490;14.376;2023-05-16T13:10:04;9.40;4.80;3.00
65556;PMS3003;52200;53.490;14.376;2023-05-16T13:12:35;9.80;5.60;2.00
65556;PMS3003;52200;53.490;14.376;2023-05-16T13:15:04;8.80;4.20;2.00
65556;PMS3003;52200;53.490;14.376;2023-05-16T13:17:34;7.60;4.00;2.20
65556;PMS3003;52200;53.490;14.376;2023-05-16T13:20:00;9.00;6.00;3.20
65556;PMS3003;52200;53.490;14.376;2023-05-16T13:22:26;8.80;4.60;2.00
65556;PMS3003;52200;53.490;14.376;2023-05-16T13:24:52;10.50;5.25;2.00
65556;PMS3003;52200;53.490;14.376;2023-05-16T13:27:17;8.00;3.50;2.25
65556;PMS3003;52200;53.490;14.376;2023-05-16T13:29:43;7.00;3.25;1.50
65556;PMS3003;52200;53.490;14.376;2023-05-16T13:32:08;8.00;3.20;1.00
65556;PMS3003;52200;53.490;14.376;2023-05-16T13:34:34;7.75;3.25;2.00
65556;PMS3003;52200;53.490;14.376;2023-05-16T13:36:59;8.00;4.00;1.00
65556;PMS3003;52200;53.490;14.376;2023-05-16T13:39:25;8.00;3.00;1.75
65556;PMS3003;52200;53.490;14.376;2023-05-16T13:41:50;10.50;4.00;1.00
65556;PMS3003;52200;53.490;14.376;2023-05-16T13:44:16;6.00;2.75;1.00
65556;PMS3003;52200;53.490;14.376;2023-05-16T13:46:42;6.60;2.60;1.20
65556;PMS3003;52200;53.490;14.376;2023-05-16T13:49:07;6.75;2.75;1.00
65556;PMS3003;52200;53.490;14.376;2023-05-16T13:51:33;8.75;3.50;1.00
65556;PMS3003;52200;53.490;14.376;2023-05-16T13:53:58;9.75;4.75;1.50
65556;PMS3003;52200;53.490;14.376;2023-05-16T13:56:24;11.50;3.00;2.00
65556;PMS3003;52200;53.490;14.376;2023-05-16T13:58:50;7.60;3.00;1.00
65556;PMS3003;52200;53.490;14.376;2023-05-16T14:01:15;7.75;4.25;1.50
65556;PMS3003;52200;53.490;14.376;2023-05-16T14:03:41;10.00;2.75;1.50
65556;PMS3003;52200;53.490;14.376;2023-05-16T14:06:07;6.80;2.80;1.20
65556;PMS3003;52200;53.490;14.376;2023-05-16T14:08:32;7.25;2.75;1.00
65556;PMS3003;52200;53.490;14.376;2023-05-16T14:10:58;7.75;3.25;0.75
65556;PMS3003;52200;53.490;14.376;2023-05-16T14:13:24;11.00;4.00;1.25
65556;PMS3003;52200;53.490;14.376;2023-05-16T14:15:49;7.50;2.50;1.00